sensor_id;sensor_type;location;lat;lon;timestamp;pressure;altitude;pressure_sealevel;temperature;humidity
16664;BME280;8445;51.270;9.434;2023-03-04T00:02:16;100152.34;;;3.34;66.70
16664;BME280;8445;51.270;9.434;2023-03-04T00:04:42;100157.34;;;3.41;66.70
16664;BME280;8445;51.270;9.434;2023-03-04T00:07:07;100159.78;;;3.46;66.14
16664;BME280;8445;51.270;9.434;2023-03-04T00:09:33;100152.81;;;3.47;67.22
16664;BME280;8445;51.270;9.434;2023-03-04T00:11:58;100149.06;;;3.54;66.74
16664;BME280;8445;51.270;9.434;2023-03-04T00:14:24;100162.09;;;3.55;66.56
16664;BME280;8445;51.270;9.434;2023-03-04T00:16:49;100154.19;;;3.57;66.43
16664;BME280;8445;51.270;9.434;2023-03-04T00:19:15;100153.34;;;3.56;66.37
16664;BME280;8445;51.270;9.434;2023-03-04T00:21:40;100151.63;;;3.55;66.50
16664;BME280;8445;51.270;9.434;2023-03-04T00:24:06;100147.38;;;3.53;66.46
16664;BME280;8445;51.270;9.434;2023-03-04T00:26:31;100140.44;;;3.52;66.55
16664;BME280;8445;51.270;9.434;2023-03-04T00:28:57;100144.69;;;3.54;66.97
16664;BME280;8445;51.270;9.434;2023-03-04T00:31:22;100142.66;;;3.63;66.42
16664;BME280;8445;51.270;9.434;2023-03-04T00:33:48;100147.09;;;3.61;66.53
16664;BME280;8445;51.270;9.434;2023-03-04T00:36:13;100139.28;;;3.59;66.56
16664;BME280;8445;51.270;9.434;2023-03-04T00:38:39;100136.53;;;3.64;66.62
16664;BME280;8445;51.270;9.434;2023-03-04T00:41:05;100134.66;;;3.67;66.65
16664;BME280;8445;51.270;9.434;2023-03-04T00:43:30;100139.88;;;3.67;66.23
16664;BME280;8445;51.270;9.434;2023-03-04T00:45:56;100141.69;;;3.65;66.40
16664;BME280;8445;51.270;9.434;2023-03-04T00:48:22;100137.47;;;3.61;66.27
16664;BME280;8445;51.270;9.434;2023-03-04T00:50:47;100141.16;;;3.55;66.54
16664;BME280;8445;51.270;9.434;2023-03-04T00:53:15;100131.44;;;3.59;66.45
16664;BME280;8445;51.270;9.434;2023-03-04T00:55:42;100130.63;;;3.57;66.63
16664;BME280;8445;51.270;9.434;2023-03-04T00:58:07;100140.19;;;3.58;66.30
16664;BME280;8445;51.270;9.434;2023-03-04T01:00:33;100133.16;;;3.60;66.44
16664;BME280;8445;51.270;9.434;2023-03-04T01:02:59;100136.66;;;3.59;66.41
16664;BME280;8445;51.270;9.434;2023-03-04T01:05:24;100135.88;;;3.57;66.04
16664;BME280;8445;51.270;9.434;2023-03-04T01:07:50;100134.97;;;3.58;66.15
16664;BME280;8445;51.270;9.434;2023-03-04T01:10:15;100129.63;;;3.61;66.27
16664;BME280;8445;51.270;9.434;2023-03-04T01:12:41;100122.66;;;3.62;66.56
16664;BME280;8445;51.270;9.434;2023-03-04T01:15:11;100125.25;;;3.62;66.53
16664;BME280;8445;51.270;9.434;2023-03-04T01:17:38;100127.91;;;3.60;66.66
16664;BME280;8445;51.270;9.434;2023-03-04T01:20:05;100117.56;;;3.57;66.61
16664;BME280;8445;51.270;9.434;2023-03-04T01:22:31;100123.59;;;3.59;66.25
16664;BME280;8445;51.270;9.434;2023-03-04T01:24:56;100114.13;;;3.55;66.93
16664;BME280;8445;51.270;9.434;2023-03-04T01:27:22;100119.16;;;3.61;66.32
16664;BME280;8445;51.270;9.434;2023-03-04T01:29:49;100108.00;;;3.56;66.10
16664;BME280;8445;51.270;9.434;2023-03-04T01:32:14;100106.34;;;3.53;66.16
16664;BME280;8445;51.270;9.434;2023-03-04T01:34:40;100103.91;;;3.49;66.45
16664;BME280;8445;51.270;9.434;2023-03-04T01:37:06;100103.69;;;3.55;66.51
16664;BME280;8445;51.270;9.434;2023-03-04T01:39:31;100101.13;;;3.53;66.43
16664;BME280;8445;51.270;9.434;2023-03-04T01:41:57;100097.69;;;3.53;66.34
16664;BME280;8445;51.270;9.434;2023-03-04T01:44:25;100096.81;;;3.52;66.52
16664;BME280;8445;51.270;9.434;2023-03-04T01:46:53;100101.13;;;3.53;66.66
16664;BME280;8445;51.270;9.434;2023-03-04T01:49:19;100094.38;;;3.48;66.07
16664;BME280;8445;51.270;9.434;2023-03-04T01:51:50;100092.31;;;3.56;66.39
16664;BME280;8445;51.270;9.434;2023-03-04T01:54:17;100086.13;;;3.59;66.27
16664;BME280;8445;51.270;9.434;2023-03-04T01:56:44;100088.75;;;3.59;66.10
16664;BME280;8445;51.270;9.434;2023-03-04T01:59:21;100091.41;;;3.57;66.02
16664;BME280;8445;51.270;9.434;2023-03-04T02:01:58;100084.34;;;3.59;66.13
16664;BME280;8445;51.270;9.434;2023-03-04T02:04:27;100078.31;;;3.57;66.16
16664;BME280;8445;51.270;9.434;2023-03-04T02:06:54;100079.13;;;3.59;66.30
16664;BME280;8445;51.270;9.434;2023-03-04T02:09:20;100073.88;;;3.59;66.27
16664;BME280;8445;51.270;9.434;2023-03-04T02:11:48;100079.13;;;3.59;66.25
16664;BME280;8445;51.270;9.434;2023-03-04T02:14:14;100073.09;;;3.57;66.06
16664;BME280;8445;51.270;9.434;2023-03-04T02:16:40;100072.19;;;3.58;65.99
16664;BME280;8445;51.270;9.434;2023-03-04T02:19:13;100072.06;;;3.61;65.95
16664;BME280;8445;51.270;9.434;2023-03-04T02:21:40;100068.44;;;3.65;65.77
16664;BME280;8445;51.270;9.434;2023-03-04T02:26:37;100065.78;;;3.67;65.89
16664;BME280;8445;51.270;9.434;2023-03-04T02:29:06;100056.16;;;3.67;65.94
16664;BME280;8445;51.270;9.434;2023-03-04T02:31:47;100066.50;;;3.70;66.08
16664;BME280;8445;51.270;9.434;2023-03-04T02:34:28;100065.81;;;3.65;66.08
16664;BME280;8445;51.270;9.434;2023-03-04T02:36:54;100059.69;;;3.66;66.04
16664;BME280;8445;51.270;9.434;2023-03-04T02:41:51;100062.19;;;3.69;65.91
16664;BME280;8445;51.270;9.434;2023-03-04T02:44:20;100065.78;;;3.67;65.90
16664;BME280;8445;51.270;9.434;2023-03-04T02:46:46;100061.38;;;3.67;66.04
16664;BME280;8445;51.270;9.434;2023-03-04T02:49:12;100055.19;;;3.70;66.17
16664;BME280;8445;51.270;9.434;2023-03-04T02:51:38;100054.22;;;3.73;66.31
16664;BME280;8445;51.270;9.434;2023-03-04T02:54:04;100057.75;;;3.71;65.84
16664;BME280;8445;51.270;9.434;2023-03-04T02:56:38;100050.13;;;3.65;66.32
16664;BME280;8445;51.270;9.434;2023-03-04T02:59:08;100056.38;;;3.61;66.48
16664;BME280;8445;51.270;9.434;2023-03-04T03:01:34;100038.63;;;3.69;66.03
16664;BME280;8445;51.270;9.434;2023-03-04T03:03:59;100037.56;;;3.75;65.75
16664;BME280;8445;51.270;9.434;2023-03-04T03:06:25;100041.94;;;3.75;65.59
16664;BME280;8445;51.270;9.434;2023-03-04T03:08:51;100038.41;;;3.76;65.74
16664;BME280;8445;51.270;9.434;2023-03-04T03:11:16;100045.69;;;3.67;65.79
16664;BME280;8445;51.270;9.434;2023-03-04T03:13:41;100044.56;;;3.75;66.09
16664;BME280;8445;51.270;9.434;2023-03-04T03:16:07;100036.66;;;3.76;66.21
16664;BME280;8445;51.270;9.434;2023-03-04T03:18:32;100041.72;;;3.81;65.73
16664;BME280;8445;51.270;9.434;2023-03-04T03:20:58;100027.81;;;3.79;65.86
16664;BME280;8445;51.270;9.434;2023-03-04T03:23:23;100038.28;;;3.79;65.71
16664;BME280;8445;51.270;9.434;2023-03-04T03:25:49;100036.56;;;3.79;65.74
16664;BME280;8445;51.270;9.434;2023-03-04T03:28:14;100040.91;;;3.79;65.72
16664;BME280;8445;51.270;9.434;2023-03-04T03:30:39;100038.38;;;3.77;65.77
16664;BME280;8445;51.270;9.434;2023-03-04T03:33:05;100033.94;;;3.79;65.82
16664;BME280;8445;51.270;9.434;2023-03-04T03:35:30;100036.69;;;3.75;65.57
16664;BME280;8445;51.270;9.434;2023-03-04T03:37:56;100034.03;;;3.76;66.11
16664;BME280;8445;51.270;9.434;2023-03-04T03:40:22;100037.69;;;3.72;65.99
16664;BME280;8445;51.270;9.434;2023-03-04T03:42:47;100033.06;;;3.79;65.90
16664;BME280;8445;51.270;9.434;2023-03-04T03:45:13;100035.56;;;3.82;65.73
16664;BME280;8445;51.270;9.434;2023-03-04T03:47:38;100036.44;;;3.82;65.71
16664;BME280;8445;51.270;9.434;2023-03-04T03:50:04;100038.25;;;3.80;65.80
16664;BME280;8445;51.270;9.434;2023-03-04T03:52:29;100031.34;;;3.78;65.57
16664;BME280;8445;51.270;9.434;2023-03-04T03:54:55;100044.66;;;3.71;66.00
16664;BME280;8445;51.270;9.434;2023-03-04T03:57:20;100034.28;;;3.70;65.89
16664;BME280;8445;51.270;9.434;2023-03-04T03:59:46;100029.66;;;3.77;65.77
16664;BME280;8445;51.270;9.434;2023-03-04T04:02:11;100026.00;;;3.81;65.55
16664;BME280;8445;51.270;9.434;2023-03-04T04:04:37;100026.81;;;3.83;65.34
16664;BME280;8445;51.270;9.434;2023-03-04T04:07:02;100033.84;;;3.81;65.35
16664;BME280;8445;51.270;9.434;2023-03-04T04:09:27;100023.56;;;3.76;65.73
16664;BME280;8445;51.270;9.434;2023-03-04T04:11:53;100031.53;;;3.73;65.84
16664;BME280;8445;51.270;9.434;2023-03-04T04:14:18;100037.00;;;3.67;65.86
16664;BME280;8445;51.270;9.434;2023-03-04T04:16:44;100034.09;;;3.75;66.12
16664;BME280;8445;51.270;9.434;2023-03-04T04:19:15;100026.47;;;3.68;66.24
16664;BME280;8445;51.270;9.434;2023-03-04T04:21:42;100028.16;;;3.69;65.61
16664;BME280;8445;51.270;9.434;2023-03-04T04:24:07;100026.56;;;3.65;66.31
16664;BME280;8445;51.270;9.434;2023-03-04T04:26:33;100023.94;;;3.65;65.81
16664;BME280;8445;51.270;9.434;2023-03-04T04:28:58;100024.75;;;3.67;65.61
16664;BME280;8445;51.270;9.434;2023-03-04T04:31:23;100029.19;;;3.65;66.04
16664;BME280;8445;51.270;9.434;2023-03-04T04:33:49;100027.22;;;3.72;65.60
16664;BME280;8445;51.270;9.434;2023-03-04T04:36:15;100025.28;;;3.77;65.76
16664;BME280;8445;51.270;9.434;2023-03-04T04:38:40;100019.19;;;3.77;65.70
16664;BME280;8445;51.270;9.434;2023-03-04T04:41:17;100020.09;;;3.76;65.84
16664;BME280;8445;51.270;9.434;2023-03-04T04:43:42;100013.94;;;3.77;65.62
16664;BME280;8445;51.270;9.434;2023-03-04T04:46:08;100007.66;;;3.82;65.83
16664;BME280;8445;51.270;9.434;2023-03-04T04:48:33;100005.75;;;3.86;65.52
16664;BME280;8445;51.270;9.434;2023-03-04T04:50:59;100018.94;;;3.83;65.62
16664;BME280;8445;51.270;9.434;2023-03-04T04:53:24;100013.03;;;3.78;65.73
16664;BME280;8445;51.270;9.434;2023-03-04T04:55:49;100006.91;;;3.79;65.47
16664;BME280;8445;51.270;9.434;2023-03-04T04:58:15;100007.56;;;3.84;65.65
16664;BME280;8445;51.270;9.434;2023-03-04T05:00:40;99999.59;;;3.87;65.09
16664;BME280;8445;51.270;9.434;2023-03-04T05:03:06;100003.94;;;3.88;65.53
16664;BME280;8445;51.270;9.434;2023-03-04T05:05:31;100003.19;;;3.84;65.57
16664;BME280;8445;51.270;9.434;2023-03-04T05:07:56;99999.72;;;3.84;65.70
16664;BME280;8445;51.270;9.434;2023-03-04T05:10:22;99998.75;;;3.86;65.87
16664;BME280;8445;51.270;9.434;2023-03-04T05:12:47;99999.50;;;3.90;65.87
16664;BME280;8445;51.270;9.434;2023-03-04T05:15:14;100002.09;;;3.90;65.50
16664;BME280;8445;51.270;9.434;2023-03-04T05:17:39;100008.13;;;3.92;65.43
16664;BME280;8445;51.270;9.434;2023-03-04T05:20:05;100011.59;;;3.93;65.32
16664;BME280;8445;51.270;9.434;2023-03-04T05:22:31;100010.00;;;3.89;65.56
16664;BME280;8445;51.270;9.434;2023-03-04T05:24:57;100008.25;;;3.89;65.42
16664;BME280;8445;51.270;9.434;2023-03-04T05:27:22;100010.63;;;3.95;65.56
16664;BME280;8445;51.270;9.434;2023-03-04T05:29:48;100014.06;;;3.97;65.51
16664;BME280;8445;51.270;9.434;2023-03-04T05:32:13;100013.19;;;3.97;65.35
16664;BME280;8445;51.270;9.434;2023-03-04T05:34:38;100008.03;;;3.95;65.72
16664;BME280;8445;51.270;9.434;2023-03-04T05:37:04;100010.44;;;4.00;65.59
16664;BME280;8445;51.270;9.434;2023-03-04T05:39:29;100016.78;;;3.94;65.89
16664;BME280;8445;51.270;9.434;2023-03-04T05:41:55;100009.84;;;3.93;65.70
16664;BME280;8445;51.270;9.434;2023-03-04T05:44:20;100018.59;;;3.92;65.62
16664;BME280;8445;51.270;9.434;2023-03-04T05:46:45;100010.44;;;4.00;65.46
16664;BME280;8445;51.270;9.434;2023-03-04T05:49:11;100013.94;;;4.00;65.65
16664;BME280;8445;51.270;9.434;2023-03-04T05:51:36;100016.44;;;4.04;65.37
16664;BME280;8445;51.270;9.434;2023-03-04T05:54:02;100016.47;;;4.02;65.45
16664;BME280;8445;51.270;9.434;2023-03-04T05:56:27;100013.06;;;4.00;65.68
16664;BME280;8445;51.270;9.434;2023-03-04T05:58:58;100011.44;;;3.97;65.62
16664;BME280;8445;51.270;9.434;2023-03-04T06:01:24;100023.63;;;3.98;65.86
16664;BME280;8445;51.270;9.434;2023-03-04T06:03:50;100010.69;;;3.94;65.65
16664;BME280;8445;51.270;9.434;2023-03-04T06:06:16;100008.13;;;3.92;65.79
16664;BME280;8445;51.270;9.434;2023-03-04T06:08:41;100012.34;;;3.96;66.06
16664;BME280;8445;51.270;9.434;2023-03-04T06:11:07;100010.41;;;4.02;65.74
16664;BME280;8445;51.270;9.434;2023-03-04T06:13:33;100015.75;;;3.98;66.12
16664;BME280;8445;51.270;9.434;2023-03-04T06:15:59;100020.91;;;4.00;65.52
16664;BME280;8445;51.270;9.434;2023-03-04T06:18:26;100033.28;;;3.96;65.77
16664;BME280;8445;51.270;9.434;2023-03-04T06:21:01;100026.22;;;3.98;65.89
16664;BME280;8445;51.270;9.434;2023-03-04T06:23:28;100025.38;;;3.98;66.17
16664;BME280;8445;51.270;9.434;2023-03-04T06:25:55;100027.94;;;3.99;66.28
16664;BME280;8445;51.270;9.434;2023-03-04T06:28:21;100039.19;;;4.02;65.69
16664;BME280;8445;51.270;9.434;2023-03-04T06:30:47;100025.19;;;4.03;65.74
16664;BME280;8445;51.270;9.434;2023-03-04T06:33:13;100025.88;;;4.08;65.93
16664;BME280;8445;51.270;9.434;2023-03-04T06:35:38;100022.59;;;4.03;65.84
16664;BME280;8445;51.270;9.434;2023-03-04T06:38:04;100034.47;;;4.11;65.67
16664;BME280;8445;51.270;9.434;2023-03-04T06:40:29;100031.91;;;4.10;66.04
16664;BME280;8445;51.270;9.434;2023-03-04T06:42:54;100021.28;;;4.13;65.67
16664;BME280;8445;51.270;9.434;2023-03-04T06:45:20;100025.50;;;4.17;65.53
16664;BME280;8445;51.270;9.434;2023-03-04T06:47:48;100027.88;;;4.23;65.77
16664;BME280;8445;51.270;9.434;2023-03-04T06:50:13;100034.69;;;4.27;66.06
16664;BME280;8445;51.270;9.434;2023-03-04T06:52:39;100035.63;;;4.26;66.18
16664;BME280;8445;51.270;9.434;2023-03-04T06:55:05;100037.28;;;4.29;65.80
16664;BME280;8445;51.270;9.434;2023-03-04T06:57:31;100032.88;;;4.29;66.30
16664;BME280;8445;51.270;9.434;2023-03-04T06:59:56;100039.59;;;4.37;65.81
16664;BME280;8445;51.270;9.434;2023-03-04T07:02:22;100037.94;;;4.34;66.14
16664;BME280;8445;51.270;9.434;2023-03-04T07:04:47;100025.31;;;4.44;65.74
16664;BME280;8445;51.270;9.434;2023-03-04T07:07:13;100031.13;;;4.52;65.92
16664;BME280;8445;51.270;9.434;2023-03-04T07:09:39;100039.53;;;4.60;65.82
16664;BME280;8445;51.270;9.434;2023-03-04T07:12:04;100033.25;;;4.65;65.74
16664;BME280;8445;51.270;9.434;2023-03-04T07:14:30;100030.00;;;4.58;66.00
16664;BME280;8445;51.270;9.434;2023-03-04T07:16:55;100024.72;;;4.59;66.12
16664;BME280;8445;51.270;9.434;2023-03-04T07:19:21;100029.03;;;4.60;66.11
16664;BME280;8445;51.270;9.434;2023-03-04T07:21:49;100034.09;;;4.65;66.24
16664;BME280;8445;51.270;9.434;2023-03-04T07:24:15;100032.22;;;4.69;65.77
16664;BME280;8445;51.270;9.434;2023-03-04T07:26:40;100033.75;;;4.73;65.85
16664;BME280;8445;51.270;9.434;2023-03-04T07:29:08;100036.38;;;4.73;66.11
16664;BME280;8445;51.270;9.434;2023-03-04T07:31:34;100036.38;;;4.73;66.21
16664;BME280;8445;51.270;9.434;2023-03-04T07:34:03;100036.44;;;4.71;66.10
16664;BME280;8445;51.270;9.434;2023-03-04T07:36:30;100031.13;;;4.73;66.16
16664;BME280;8445;51.270;9.434;2023-03-04T07:38:55;100037.72;;;4.83;65.84
16664;BME280;8445;51.270;9.434;2023-03-04T07:41:23;100034.03;;;4.87;66.00
16664;BME280;8445;51.270;9.434;2023-03-04T07:43:49;100039.03;;;4.94;66.04
16664;BME280;8445;51.270;9.434;2023-03-04T07:46:15;100037.19;;;4.96;66.16
16664;BME280;8445;51.270;9.434;2023-03-04T07:48:41;100039.66;;;5.00;66.06
16664;BME280;8445;51.270;9.434;2023-03-04T07:51:08;100041.06;;;5.08;66.02
16664;BME280;8445;51.270;9.434;2023-03-04T07:53:34;100039.69;;;4.99;66.09
16664;BME280;8445;51.270;9.434;2023-03-04T07:56:00;100049.34;;;4.98;66.56
16664;BME280;8445;51.270;9.434;2023-03-04T07:58:26;100034.84;;;5.10;66.46
16664;BME280;8445;51.270;9.434;2023-03-04T08:00:51;100039.31;;;5.29;66.50
16664;BME280;8445;51.270;9.434;2023-03-04T08:03:17;100041.06;;;5.49;66.50
16664;BME280;8445;51.270;9.434;2023-03-04T08:05:42;100052.06;;;5.57;66.20
16664;BME280;8445;51.270;9.434;2023-03-04T08:08:08;100037.72;;;5.64;66.49
16664;BME280;8445;51.270;9.434;2023-03-04T08:10:34;100039.94;;;5.74;66.61
16664;BME280;8445;51.270;9.434;2023-03-04T08:13:00;100030.16;;;5.77;66.29
16664;BME280;8445;51.270;9.434;2023-03-04T08:15:26;100028.59;;;5.92;66.63
16664;BME280;8445;51.270;9.434;2023-03-04T08:17:52;100023.38;;;6.12;66.87
16664;BME280;8445;51.270;9.434;2023-03-04T08:20:18;100028.03;;;6.24;66.25
16664;BME280;8445;51.270;9.434;2023-03-04T08:22:43;100028.75;;;6.28;66.45
16664;BME280;8445;51.270;9.434;2023-03-04T08:25:09;100025.16;;;6.48;66.39
16664;BME280;8445;51.270;9.434;2023-03-04T08:27:35;100022.69;;;6.62;66.46
16664;BME280;8445;51.270;9.434;2023-03-04T08:30:03;100021.66;;;6.84;66.95
16664;BME280;8445;51.270;9.434;2023-03-04T08:32:28;100023.09;;;7.07;66.22
16664;BME280;8445;51.270;9.434;2023-03-04T08:34:54;100022.16;;;7.26;66.07
16664;BME280;8445;51.270;9.434;2023-03-04T08:37:21;100014.03;;;7.13;66.24
16664;BME280;8445;51.270;9.434;2023-03-04T08:39:47;100014.19;;;7.10;66.65
16664;BME280;8445;51.270;9.434;2023-03-04T08:42:12;100015.03;;;7.28;66.73
16664;BME280;8445;51.270;9.434;2023-03-04T08:44:37;100008.44;;;7.37;66.77
16664;BME280;8445;51.270;9.434;2023-03-04T08:47:03;100008.78;;;7.47;66.98
16664;BME280;8445;51.270;9.434;2023-03-04T08:49:28;100016.91;;;7.60;66.89
16664;BME280;8445;51.270;9.434;2023-03-04T08:51:54;100009.50;;;7.50;66.31
16664;BME280;8445;51.270;9.434;2023-03-04T08:54:19;100011.84;;;7.39;66.54
16664;BME280;8445;51.270;9.434;2023-03-04T08:56:45;100009.50;;;7.50;66.62
16664;BME280;8445;51.270;9.434;2023-03-04T08:59:10;100012.41;;;7.62;66.88
16664;BME280;8445;51.270;9.434;2023-03-04T09:01:36;100011.00;;;7.88;67.40
16664;BME280;8445;51.270;9.434;2023-03-04T09:04:01;100004.00;;;8.19;66.54
16664;BME280;8445;51.270;9.434;2023-03-04T09:06:27;100007.66;;;8.33;67.10
16664;BME280;8445;51.270;9.434;2023-03-04T09:08:52;99997.25;;;8.45;66.11
16664;BME280;8445;51.270;9.434;2023-03-04T09:11:18;100001.88;;;8.58;66.08
16664;BME280;8445;51.270;9.434;2023-03-04T09:13:43;100001.81;;;8.74;66.32
16664;BME280;8445;51.270;9.434;2023-03-04T09:16:11;99995.72;;;8.73;66.17
16664;BME280;8445;51.270;9.434;2023-03-04T09:18:36;99998.94;;;8.79;66.41
16664;BME280;8445;51.270;9.434;2023-03-04T09:21:04;100004.88;;;8.82;65.57
16664;BME280;8445;51.270;9.434;2023-03-04T09:23:29;99994.59;;;8.92;66.07
16664;BME280;8445;51.270;9.434;2023-03-04T09:25:55;99992.75;;;9.09;65.72
16664;BME280;8445;51.270;9.434;2023-03-04T09:28:20;100002.59;;;9.21;65.19
16664;BME280;8445;51.270;9.434;2023-03-04T09:30:46;100004.53;;;9.17;65.42
16664;BME280;8445;51.270;9.434;2023-03-04T09:33:12;100001.22;;;8.99;65.31
16664;BME280;8445;51.270;9.434;2023-03-04T09:35:37;100002.09;;;9.00;65.65
16664;BME280;8445;51.270;9.434;2023-03-04T09:38:03;100003.97;;;8.98;64.90
16664;BME280;8445;51.270;9.434;2023-03-04T09:40:32;100007.91;;;8.90;65.30
16664;BME280;8445;51.270;9.434;2023-03-04T09:43:03;100008.56;;;8.94;65.25
16664;BME280;8445;51.270;9.434;2023-03-04T09:45:37;100008.22;;;9.15;65.82
16664;BME280;8445;51.270;9.434;2023-03-04T09:48:06;100020.88;;;9.24;65.19
16664;BME280;8445;51.270;9.434;2023-03-04T09:50:40;100018.59;;;9.18;64.90
16664;BME280;8445;51.270;9.434;2023-03-04T09:53:14;100015.56;;;9.10;65.04
16664;BME280;8445;51.270;9.434;2023-03-04T09:55:47;100022.00;;;9.20;65.74
16664;BME280;8445;51.270;9.434;2023-03-04T09:58:36;100014.09;;;9.34;65.91
16664;BME280;8445;51.270;9.434;2023-03-04T10:01:19;100011.84;;;9.57;65.33
16664;BME280;8445;51.270;9.434;2023-03-04T10:03:50;100012.22;;;9.51;64.57
16664;BME280;8445;51.270;9.434;2023-03-04T10:06:19;100016.53;;;9.52;65.12
16664;BME280;8445;51.270;9.434;2023-03-04T10:09:02;100009.50;;;9.67;65.60
16664;BME280;8445;51.270;9.434;2023-03-04T10:11:41;100011.53;;;9.76;64.45
16664;BME280;8445;51.270;9.434;2023-03-04T10:16:52;100009.84;;;10.17;65.96
16664;BME280;8445;51.270;9.434;2023-03-04T10:19:41;100005.28;;;10.48;65.13
16664;BME280;8445;51.270;9.434;2023-03-04T10:24:45;100001.78;;;10.61;64.76
16664;BME280;8445;51.270;9.434;2023-03-04T10:27:15;99998.09;;;10.36;64.30
16664;BME280;8445;51.270;9.434;2023-03-04T10:29:42;100002.47;;;10.22;64.65
16664;BME280;8445;51.270;9.434;2023-03-04T10:32:13;99997.78;;;10.13;64.63
16664;BME280;8445;51.270;9.434;2023-03-04T10:34:40;100001.44;;;10.25;65.01
16664;BME280;8445;51.270;9.434;2023-03-04T10:37:06;100000.94;;;10.47;64.98
16664;BME280;8445;51.270;9.434;2023-03-04T10:39:36;99995.25;;;10.53;64.67
16664;BME280;8445;51.270;9.434;2023-03-04T10:42:27;99988.34;;;10.36;64.56
16664;BME280;8445;51.270;9.434;2023-03-04T10:44:57;99994.56;;;10.22;64.21
16664;BME280;8445;51.270;9.434;2023-03-04T10:47:36;99993.59;;;10.23;64.15
16664;BME280;8445;51.270;9.434;2023-03-04T10:50:05;99984.97;;;10.34;65.26
16664;BME280;8445;51.270;9.434;2023-03-04T10:55:03;99981.13;;;10.26;61.63
16664;BME280;8445;51.270;9.434;2023-03-04T10:57:35;99977.97;;;10.06;63.78
16664;BME280;8445;51.270;9.434;2023-03-04T11:00:22;99979.38;;;9.84;58.88
16664;BME280;8445;51.270;9.434;2023-03-04T11:05:49;99986.72;;;9.93;63.55
16664;BME280;8445;51.270;9.434;2023-03-04T11:08:18;99978.25;;;9.59;63.96
16664;BME280;8445;51.270;9.434;2023-03-04T11:10:48;99985.34;;;9.44;62.98
16664;BME280;8445;51.270;9.434;2023-03-04T11:13:22;99983.19;;;9.37;63.69
16664;BME280;8445;51.270;9.434;2023-03-04T11:18:47;99972.78;;;9.62;63.11
16664;BME280;8445;51.270;9.434;2023-03-04T11:21:28;99970.88;;;9.64;63.27
16664;BME280;8445;51.270;9.434;2023-03-04T11:24:02;99974.28;;;9.52;62.94
16664;BME280;8445;51.270;9.434;2023-03-04T11:26:35;99980.13;;;9.43;62.86
16664;BME280;8445;51.270;9.434;2023-03-04T11:29:13;99982.88;;;9.27;62.13
16664;BME280;8445;51.270;9.434;2023-03-04T11:31:52;99965.59;;;9.07;62.59
16664;BME280;8445;51.270;9.434;2023-03-04T11:37:21;99970.97;;;8.90;63.71
16664;BME280;8445;51.270;9.434;2023-03-04T11:40:00;99972.31;;;8.98;62.77
16664;BME280;8445;51.270;9.434;2023-03-04T11:54:34;99963.16;;;9.03;62.90
16664;BME280;8445;51.270;9.434;2023-03-04T12:02:23;99950.72;;;9.20;62.72
16664;BME280;8445;51.270;9.434;2023-03-04T12:08:24;99950.63;;;9.07;62.68
16664;BME280;8445;51.270;9.434;2023-03-04T12:14:16;99936.41;;;9.39;63.41
16664;BME280;8445;51.270;9.434;2023-03-04T12:19:38;99930.19;;;9.40;62.73
16664;BME280;8445;51.270;9.434;2023-03-04T12:28:18;99925.81;;;8.95;63.10
16664;BME280;8445;51.270;9.434;2023-03-04T12:31:27;99920.00;;;9.04;62.49
16664;BME280;8445;51.270;9.434;2023-03-04T12:39:33;99912.06;;;9.04;63.78
16664;BME280;8445;51.270;9.434;2023-03-04T12:42:36;99905.84;;;9.05;62.75
16664;BME280;8445;51.270;9.434;2023-03-04T12:45:31;99909.81;;;8.98;62.38
16664;BME280;8445;51.270;9.434;2023-03-04T12:48:42;99912.38;;;9.00;62.32
16664;BME280;8445;51.270;9.434;2023-03-04T12:51:24;99902.66;;;9.00;62.40
16664;BME280;8445;51.270;9.434;2023-03-04T12:54:16;99895.38;;;9.18;62.26
16664;BME280;8445;51.270;9.434;2023-03-04T12:56:53;99899.91;;;9.31;62.15
16664;BME280;8445;51.270;9.434;2023-03-04T12:59:22;99895.88;;;9.25;62.44
16664;BME280;8445;51.270;9.434;2023-03-04T13:09:50;99886.44;;;9.07;61.38
16664;BME280;8445;51.270;9.434;2023-03-04T13:12:21;99881.72;;;8.97;61.63
16664;BME280;8445;51.270;9.434;2023-03-04T13:17:41;99891.31;;;8.84;61.92
16664;BME280;8445;51.270;9.434;2023-03-04T13:23:20;99879.56;;;8.44;61.50
16664;BME280;8445;51.270;9.434;2023-03-04T13:28:38;99876.88;;;8.30;60.45
16664;BME280;8445;51.270;9.434;2023-03-04T13:31:13;99862.47;;;8.21;61.17
16664;BME280;8445;51.270;9.434;2023-03-04T13:33:49;99866.63;;;7.95;60.87
16664;BME280;8445;51.270;9.434;2023-03-04T13:36:27;99858.91;;;7.76;61.37
16664;BME280;8445;51.270;9.434;2023-03-04T13:39:03;99865.34;;;7.70;61.37
16664;BME280;8445;51.270;9.434;2023-03-04T13:41:51;99867.44;;;7.65;61.38
16664;BME280;8445;51.270;9.434;2023-03-04T13:47:19;99858.25;;;8.02;61.08
16664;BME280;8445;51.270;9.434;2023-03-04T13:49:48;99861.28;;;8.11;61.46
16664;BME280;8445;51.270;9.434;2023-03-04T13:52:40;99851.09;;;8.05;60.97
16664;BME280;8445;51.270;9.434;2023-03-04T13:55:39;99848.94;;;7.97;61.12
16664;BME280;8445;51.270;9.434;2023-03-04T13:58:26;99838.22;;;8.00;61.22
16664;BME280;8445;51.270;9.434;2023-03-04T14:00:55;99844.44;;;7.99;61.30
16664;BME280;8445;51.270;9.434;2023-03-04T14:03:28;99838.75;;;7.91;60.80
16664;BME280;8445;51.270;9.434;2023-03-04T14:06:18;99849.97;;;7.78;60.62
16664;BME280;8445;51.270;9.434;2023-03-04T14:08:44;99843.72;;;7.65;61.00
16664;BME280;8445;51.270;9.434;2023-03-04T14:11:16;99845.94;;;7.56;60.77
16664;BME280;8445;51.270;9.434;2023-03-04T14:13:45;99845.41;;;7.50;61.04
16664;BME280;8445;51.270;9.434;2023-03-04T14:16:10;99846.88;;;7.55;61.85
16664;BME280;8445;51.270;9.434;2023-03-04T14:18:36;99838.47;;;7.65;61.58
16664;BME280;8445;51.270;9.434;2023-03-04T14:21:03;99836.75;;;7.80;62.21
16664;BME280;8445;51.270;9.434;2023-03-04T14:23:30;99826.69;;;7.86;61.78
16664;BME280;8445;51.270;9.434;2023-03-04T14:28:48;99813.63;;;8.15;61.23
16664;BME280;8445;51.270;9.434;2023-03-04T14:31:16;99814.72;;;8.11;61.17
16664;BME280;8445;51.270;9.434;2023-03-04T14:33:53;99803.25;;;8.12;61.32
16664;BME280;8445;51.270;9.434;2023-03-04T14:36:24;99811.81;;;8.16;61.04
16664;BME280;8445;51.270;9.434;2023-03-04T14:39:04;99805.50;;;8.04;61.03
16664;BME280;8445;51.270;9.434;2023-03-04T14:41:38;99799.81;;;7.96;60.98
16664;BME280;8445;51.270;9.434;2023-03-04T14:44:28;99797.47;;;7.75;60.50